Time;durP1;ratioP1;P1;durP2;ratioP2;P2;SDS_P1;SDS_P2;PMS_P1;PMS_P2;Temp;Humidity;BMP_temperature;BMP_pressure;BME280_temperature;BME280_humidity;BME280_pressure;Samples;Min_cycle;Max_cycle;Signal;HPM_P1;HPM_P2
2021/09/27 00:00:43;;;;;;;;;11.50;10.25;;;;;19.42;91.91;101192.53;5079122;27;45441;-64
2021/09/27 00:03:10;;;;;;;;;13.25;11.25;;;;;19.40;92.58;101190.00;5079082;27;45280;-63
2021/09/27 00:05:36;;;;;;;;;10.50;10.50;;;;;19.41;92.51;101190.84;5077202;27;45354;-64
2021/09/27 00:08:02;;;;;;;;;11.25;9.75;;;;;19.39;92.38;101188.31;5064776;27;45446;-64
2021/09/27 00:10:33;;;;;;;;;10.00;10.00;;;;;19.41;92.36;101196.97;5074807;28;45753;-64
2021/09/27 00:12:58;;;;;;;;;10.00;9.00;;;;;19.41;92.70;101191.69;5076915;27;45460;-63
2021/09/27 00:15:28;;;;;;;;;11.00;9.00;;;;;19.42;92.76;101189.91;5078614;27;45362;-64
2021/09/27 00:17:53;;;;;;;;;13.50;8.75;;;;;19.43;92.98;101191.63;5068473;27;46151;-63
2021/09/27 00:20:20;;;;;;;;;9.25;8.75;;;;;19.45;92.58;101187.13;5080442;28;45354;-63
2021/09/27 00:22:48;;;;;;;;;6.75;5.75;;;;;19.50;92.23;101186.84;5080120;27;45374;-63
2021/09/27 00:25:16;;;;;;;;;10.75;9.00;;;;;19.51;92.54;101184.13;5080046;27;45420;-63
2021/09/27 00:27:41;;;;;;;;;10.50;8.50;;;;;19.53;91.93;101186.66;5079727;27;46604;-65
2021/09/27 00:30:07;;;;;;;;;9.00;7.25;;;;;19.54;92.51;101172.59;5079889;27;45401;-64
2021/09/27 00:32:33;;;;;;;;;9.25;9.25;;;;;19.56;92.12;101179.47;5079609;27;45424;-64
2021/09/27 00:34:58;;;;;;;;;13.75;10.50;;;;;19.57;91.93;101183.78;5079643;27;45500;-64
2021/09/27 00:37:24;;;;;;;;;8.00;8.00;;;;;19.57;91.89;101177.69;5081338;27;45340;-64
2021/09/27 00:39:49;;;;;;;;;6.75;6.75;;;;;19.55;92.19;101171.66;5082267;27;45362;-64
2021/09/27 00:42:14;;;;;;;;;10.00;7.25;;;;;19.55;92.39;101182.19;5081494;28;45232;-64
2021/09/27 00:44:40;;;;;;;;;10.75;9.75;;;;;19.52;92.46;101182.34;5080681;27;45515;-64
2021/09/27 00:47:05;;;;;;;;;9.00;8.50;;;;;19.48;92.00;101178.19;5081448;27;46012;-64
2021/09/27 00:49:31;;;;;;;;;12.00;11.50;;;;;19.42;92.30;101179.38;5081628;27;45253;-64
2021/09/27 00:51:57;;;;;;;;;9.25;8.75;;;;;19.37;92.48;101184.91;5081694;27;45517;-64
2021/09/27 00:54:27;;;;;;;;;8.75;8.75;;;;;19.34;92.72;101174.53;5081008;27;45573;-64
2021/09/27 00:56:56;;;;;;;;;8.00;7.50;;;;;19.31;93.26;101177.34;5081799;27;46287;-64
2021/09/27 00:59:24;;;;;;;;;8.50;8.25;;;;;19.24;92.69;101175.16;5081994;27;45507;-62
2021/09/27 01:01:51;;;;;;;;;10.25;10.25;;;;;19.20;92.84;101171.00;5081737;27;45390;-62
2021/09/27 01:04:16;;;;;;;;;9.50;9.00;;;;;19.19;93.01;101169.28;5081616;28;45229;-62
2021/09/27 01:06:57;;;;;;;;;10.00;10.00;;;;;19.21;93.16;101163.00;5081294;27;46118;-62
2021/09/27 01:09:48;;;;;;;;;11.25;9.75;;;;;19.21;93.33;101160.34;5081851;27;45311;-62
2021/09/27 01:12:48;;;;;;;;;8.50;7.75;;;;;19.21;93.13;101156.88;5081714;27;45313;-62
2021/09/27 01:15:50;;;;;;;;;9.25;8.75;;;;;19.15;92.69;101156.28;5081223;28;45276;-62
2021/09/27 01:18:24;;;;;;;;;9.25;7.75;;;;;19.15;92.44;101143.13;5067551;27;46266;-62
2021/09/27 01:21:06;;;;;;;;;10.50;10.50;;;;;19.12;93.23;101145.94;5080654;28;45153;-62
2021/09/27 01:23:46;;;;;;;;;9.50;9.25;;;;;19.09;92.99;101138.22;5081307;28;45165;-62
2021/09/27 01:26:44;;;;;;;;;9.25;9.00;;;;;19.12;92.75;101145.09;5081308;27;45314;-61
2021/09/27 01:29:49;;;;;;;;;11.25;9.75;;;;;19.12;92.99;101143.28;5081446;27;45401;-61
2021/09/27 01:32:42;;;;;;;;;9.75;9.50;;;;;19.12;92.56;101142.44;5081221;27;45333;-62
2021/09/27 01:35:27;;;;;;;;;8.00;8.00;;;;;19.10;92.94;101150.44;5081142;28;45375;-61
2021/09/27 01:38:14;;;;;;;;;12.50;9.50;;;;;19.05;93.00;101141.97;5080926;28;45320;-62
2021/09/27 01:40:52;;;;;;;;;11.25;10.25;;;;;19.05;92.79;101143.75;5076427;27;45403;-62
2021/09/27 01:43:26;;;;;;;;;13.25;9.75;;;;;19.02;92.70;101141.25;5080259;28;45524;-62
2021/09/27 01:46:22;;;;;;;;;13.75;11.00;;;;;19.03;93.17;101140.34;5078810;28;45476;-63
2021/09/27 01:49:00;;;;;;;;;9.50;6.75;;;;;19.01;93.15;101137.78;5080846;27;45320;-63
2021/09/27 01:51:37;;;;;;;;;11.00;9.00;;;;;18.95;92.50;101140.75;5080257;27;48217;-63
2021/09/27 01:54:14;;;;;;;;;10.75;8.00;;;;;18.93;93.11;101131.25;5080504;27;45321;-63
2021/09/27 01:57:01;;;;;;;;;9.00;8.25;;;;;18.92;93.34;101135.66;5081293;27;45557;-63
2021/09/27 01:59:35;;;;;;;;;11.25;10.00;;;;;18.95;93.07;101124.09;5068655;28;45213;-63
2021/09/27 02:02:16;;;;;;;;;11.25;9.50;;;;;18.97;92.77;101116.97;5080644;27;45463;-63
2021/09/27 02:05:11;;;;;;;;;12.75;11.50;;;;;18.96;93.00;101110.84;5080752;28;45348;-63
2021/09/27 02:07:44;;;;;;;;;10.00;8.75;;;;;18.97;92.59;101107.28;5069168;28;45365;-64
2021/09/27 02:10:16;;;;;;;;;11.00;10.00;;;;;18.98;92.79;101108.13;5080670;27;45389;-64
2021/09/27 02:12:48;;;;;;;;;10.00;10.00;;;;;18.98;92.68;101108.97;5096188;27;45317;-64
2021/09/27 02:15:16;;;;;;;;;12.00;10.50;;;;;18.99;93.07;101107.19;5080389;28;45764;-63
2021/09/27 02:17:55;;;;;;;;;13.00;11.50;;;;;18.96;93.16;101110.00;5071003;27;45252;-64
2021/09/27 02:20:32;;;;;;;;;11.25;9.00;;;;;18.89;92.71;101103.38;5067413;28;45208;-63
2021/09/27 02:23:12;;;;;;;;;12.75;10.00;;;;;18.88;92.90;101106.97;5079959;28;46110;-63
2021/09/27 02:25:40;;;;;;;;;12.75;10.00;;;;;18.84;93.42;101111.56;5080539;28;45223;-63
2021/09/27 02:28:14;;;;;;;;;12.50;11.00;;;;;18.75;93.48;101105.00;5080425;27;45189;-64
2021/09/27 02:30:45;;;;;;;;;10.75;10.75;;;;;18.75;93.60;101112.06;5080316;27;45156;-64
2021/09/27 02:33:50;;;;;;;;;12.50;9.75;;;;;18.78;93.90;101119.78;5079833;28;46172;-63
2021/09/27 02:36:26;;;;;;;;;12.00;11.00;;;;;18.81;93.93;101122.22;5079898;28;45697;-63
2021/09/27 02:39:02;;;;;;;;;12.00;11.00;;;;;18.84;94.38;101111.56;5079801;27;45288;-63
2021/09/27 02:42:06;;;;;;;;;12.25;12.00;;;;;18.85;93.81;101121.16;5080222;27;45304;-63
2021/09/27 02:44:32;;;;;;;;;11.25;9.50;;;;;18.84;94.07;101112.41;5083821;27;45355;-63
2021/09/27 02:46:58;;;;;;;;;12.50;12.25;;;;;18.84;94.00;101103.66;5074470;28;45573;-63
2021/09/27 02:49:29;;;;;;;;;14.25;13.00;;;;;18.87;93.64;101106.13;5080054;27;45345;-63
2021/09/27 02:51:58;;;;;;;;;13.50;11.25;;;;;18.89;94.00;101103.38;5079377;27;45328;-63
2021/09/27 02:54:38;;;;;;;;;17.50;12.50;;;;;18.89;93.28;101104.25;5079137;28;46349;-62
2021/09/27 02:57:13;;;;;;;;;11.25;11.25;;;;;18.91;93.71;101104.16;5079925;28;45291;-61
2021/09/27 03:00:04;;;;;;;;;14.25;12.00;;;;;18.88;93.58;101110.44;5080357;27;45330;-63
2021/09/27 03:02:38;;;;;;;;;9.25;9.25;;;;;18.83;93.90;101110.72;5079620;28;45337;-64
2021/09/27 03:05:32;;;;;;;;;13.00;11.00;;;;;18.79;93.49;101103.88;5079496;28;45671;-64
2021/09/27 03:08:18;;;;;;;;;16.50;13.00;;;;;18.79;93.64;101108.31;5079938;27;45555;-63
2021/09/27 03:11:12;;;;;;;;;14.00;11.75;;;;;18.81;93.61;101096.75;5068054;28;45230;-63
2021/09/27 03:13:47;;;;;;;;;13.00;12.75;;;;;18.81;93.86;101098.53;5079714;28;45471;-64
2021/09/27 03:16:51;;;;;;;;;15.25;13.75;;;;;18.82;93.63;101102.88;5079579;28;46228;-67
2021/09/27 03:19:26;;;;;;;;;16.00;12.00;;;;;18.82;93.89;101100.22;5089462;27;45430;-66
2021/09/27 03:22:26;;;;;;;;;12.50;12.00;;;;;18.81;93.75;101094.13;5097770;27;45354;-66
2021/09/27 03:25:04;;;;;;;;;17.50;16.00;;;;;18.79;93.37;101092.50;5043389;27;45498;-64
2021/09/27 03:28:01;;;;;;;;;11.75;11.75;;;;;18.81;93.61;101088.00;5079204;28;46247;-63
2021/09/27 03:30:38;;;;;;;;;13.25;11.75;;;;;18.79;93.61;101092.50;5061531;28;45301;-64
2021/09/27 03:33:13;;;;;;;;;11.75;11.50;;;;;18.77;93.70;101086.47;5079251;27;45294;-64
2021/09/27 03:35:56;;;;;;;;;14.75;11.75;;;;;18.78;93.98;101096.06;5079348;28;45468;-64
2021/09/27 03:38:46;;;;;;;;;13.25;13.25;;;;;18.76;94.19;101098.78;5079801;27;45274;-66
2021/09/27 03:41:26;;;;;;;;;15.00;11.75;;;;;18.73;94.01;101098.13;5079504;27;45829;-66
2021/09/27 03:44:04;;;;;;;;;14.25;13.50;;;;;18.72;93.64;101099.06;5078846;28;45307;-67
2021/09/27 03:46:44;;;;;;;;;15.75;14.00;;;;;18.67;94.59;101099.31;5066537;28;45300;-65
2021/09/27 03:49:39;;;;;;;;;15.00;14.25;;;;;18.60;94.65;101112.84;5079470;27;45374;-64
2021/09/27 03:52:15;;;;;;;;;15.00;12.50;;;;;18.63;94.33;101107.47;5082261;28;45306;-64
2021/09/27 03:54:51;;;;;;;;;13.25;13.25;;;;;18.67;94.43;101109.00;5074781;27;45260;-74
2021/09/27 03:57:32;;;;;;;;;17.00;12.50;;;;;18.69;94.57;101097.44;5078987;28;45315;-63
2021/09/27 04:00:10;;;;;;;;;14.25;12.75;;;;;18.72;94.66;101101.69;5082945;27;46150;-77
2021/09/27 04:03:00;;;;;;;;;11.75;10.00;;;;;18.70;94.39;101109.69;5069361;28;45492;-74
2021/09/27 04:05:34;;;;;;;;;11.00;10.25;;;;;18.70;94.42;101114.94;5082918;28;45329;-74
2021/09/27 04:08:18;;;;;;;;;11.00;11.00;;;;;18.69;94.24;101107.13;5082976;27;45223;-74
2021/09/27 04:11:04;;;;;;;;;10.00;9.50;;;;;18.69;94.26;101107.13;5069557;28;46609;-73
2021/09/27 04:13:50;;;;;;;;;13.75;9.50;;;;;18.66;93.93;101102.91;5079126;27;45233;-65
2021/09/27 04:16:43;;;;;;;;;10.50;10.00;;;;;18.63;94.20;101110.13;5075073;28;45282;-65
2021/09/27 04:19:36;;;;;;;;;10.50;10.00;;;;;18.59;94.06;101100.63;5062658;28;45319;-72
2021/09/27 04:22:14;;;;;;;;;12.00;10.00;;;;;18.60;94.15;101108.44;5068607;28;46219;-69
2021/09/27 04:25:08;;;;;;;;;16.00;10.75;;;;;18.60;93.94;101102.31;5082380;27;45180;-68
2021/09/27 04:27:51;;;;;;;;;10.75;9.00;;;;;18.58;93.73;101112.09;5082421;28;45492;-65
2021/09/27 04:30:32;;;;;;;;;12.25;11.00;;;;;18.58;93.78;101089.25;5069932;28;45280;-69
2021/09/27 04:33:19;;;;;;;;;11.25;10.50;;;;;18.55;93.35;101098.16;5081599;28;45356;-62
2021/09/27 04:36:16;;;;;;;;;11.00;9.50;;;;;18.54;93.51;101098.25;5081634;28;45295;-62
2021/09/27 04:38:42;;;;;;;;;6.75;6.00;;;;;18.55;92.82;101085.00;5082223;28;45334;-62
2021/09/27 04:41:19;;;;;;;;;9.25;8.75;;;;;18.56;92.82;101077.97;5081766;28;45237;-60
2021/09/27 04:44:12;;;;;;;;;8.50;7.75;;;;;18.54;93.20;101088.56;5081873;27;45400;-61
2021/09/27 04:46:43;;;;;;;;;10.25;9.00;;;;;18.51;92.75;101074.75;5070102;28;45282;-63
2021/09/27 04:49:08;;;;;;;;;9.00;6.75;;;;;18.53;93.04;101072.88;5080727;27;45631;-63
2021/09/27 04:51:51;;;;;;;;;8.25;8.25;;;;;18.57;93.06;101076.19;5080986;27;45599;-62
2021/09/27 04:54:38;;;;;;;;;9.75;8.75;;;;;18.55;92.83;101074.47;5079867;27;47073;-63
2021/09/27 04:57:27;;;;;;;;;10.00;8.50;;;;;18.53;92.77;101081.63;5079699;28;45724;-60
2021/09/27 04:59:58;;;;;;;;;12.00;9.00;;;;;18.49;92.59;101072.19;5079000;28;45655;-60
2021/09/27 05:02:38;;;;;;;;;11.50;9.00;;;;;18.48;92.37;101072.28;5078954;27;45370;-59
2021/09/27 05:05:12;;;;;;;;;12.25;9.25;;;;;18.47;92.65;101065.31;5078648;27;46019;-60
2021/09/27 05:08:02;;;;;;;;;8.00;6.50;;;;;18.44;92.60;101070.75;5079026;27;45323;-60
2021/09/27 05:10:46;;;;;;;;;9.50;7.50;;;;;18.39;93.03;101065.72;5079091;28;45498;-59
2021/09/27 05:13:47;;;;;;;;;8.25;8.00;;;;;18.39;93.06;101060.47;5080720;28;45631;-59
2021/09/27 05:16:24;;;;;;;;;9.50;8.50;;;;;18.35;92.72;101061.56;5080940;28;45315;-63
2021/09/27 05:19:15;;;;;;;;;11.25;8.25;;;;;18.31;93.46;101049.53;5069099;27;45419;-58
2021/09/27 05:22:11;;;;;;;;;11.25;9.75;;;;;18.25;93.31;101049.88;5080227;27;45367;-59
2021/09/27 05:24:58;;;;;;;;;14.00;10.00;;;;;18.23;93.34;101044.69;5081053;28;45249;-58
2021/09/27 05:27:51;;;;;;;;;8.75;8.00;;;;;18.19;93.04;101039.66;5081130;28;46282;-59
2021/09/27 05:30:29;;;;;;;;;5.75;5.50;;;;;18.17;94.07;101052.03;5069097;28;45223;-59
2021/09/27 05:33:10;;;;;;;;;10.00;8.00;;;;;18.19;93.76;101052.81;5078224;27;45374;-59
2021/09/27 05:35:51;;;;;;;;;11.00;10.25;;;;;18.18;93.67;101061.63;5080204;28;45298;-59
2021/09/27 05:38:43;;;;;;;;;10.25;9.75;;;;;18.14;94.53;101058.31;5069209;28;45323;-59
2021/09/27 05:41:26;;;;;;;;;12.50;12.00;;;;;18.15;94.13;101059.16;5080755;28;45733;-58
2021/09/27 05:44:07;;;;;;;;;11.25;10.00;;;;;18.21;94.04;101064.94;5080293;27;45478;-60
2021/09/27 05:46:44;;;;;;;;;10.00;8.00;;;;;18.24;94.27;101048.16;5068544;28;45388;-60
2021/09/27 05:49:19;;;;;;;;;11.00;10.00;;;;;18.21;93.70;101053.56;5080348;27;45339;-60
2021/09/27 05:51:59;;;;;;;;;10.25;10.25;;;;;18.22;94.20;101040.38;5079994;27;45435;-61
2021/09/27 05:54:46;;;;;;;;;9.75;9.75;;;;;18.23;94.36;101038.56;5079907;28;45250;-58
2021/09/27 05:57:20;;;;;;;;;9.25;6.50;;;;;18.25;94.13;101044.59;5080649;27;45215;-58
2021/09/27 05:59:56;;;;;;;;;15.00;12.00;;;;;18.28;94.37;101038.31;5080434;28;45463;-59
2021/09/27 06:02:41;;;;;;;;;15.00;9.75;;;;;18.29;94.20;101040.88;5080219;27;45349;-58
2021/09/27 06:05:56;;;;;;;;;13.75;12.50;;;;;18.29;93.60;101061.06;5080315;27;45165;-59
2021/09/27 06:08:36;;;;;;;;;13.00;10.25;;;;;18.29;93.81;101051.38;5081378;27;45304;-59
2021/09/27 06:11:04;;;;;;;;;16.50;15.75;;;;;18.33;94.11;101059.97;5080127;28;46278;-58
2021/09/27 06:13:36;;;;;;;;;15.25;12.00;;;;;18.40;93.92;101059.53;5078833;27;45488;-59
2021/09/27 06:16:12;;;;;;;;;12.00;10.00;;;;;18.40;94.02;101062.16;5080584;27;45273;-59
2021/09/27 06:19:02;;;;;;;;;11.50;10.00;;;;;18.43;93.61;101077.81;5068231;27;45353;-59
2021/09/27 06:21:57;;;;;;;;;8.75;7.75;;;;;18.48;93.77;101083.66;5079677;27;46473;-59
2021/09/27 06:24:58;;;;;;;;;9.25;9.25;;;;;18.53;93.90;101086.88;5080053;28;45666;-59
2021/09/27 06:28:15;;;;;;;;;16.50;13.50;;;;;18.60;93.29;101091.78;5093481;27;45270;-59
2021/09/27 06:31:05;;;;;;;;;12.00;10.00;;;;;18.64;93.06;101099.50;5049535;28;45283;-59
2021/09/27 06:33:40;;;;;;;;;18.50;11.00;;;;;18.66;93.48;101092.38;5042010;28;45367;-59
2021/09/27 06:36:09;;;;;;;;;13.25;11.00;;;;;18.73;92.86;101079.69;5071748;28;45631;-58
2021/09/27 06:38:38;;;;;;;;;12.50;9.00;;;;;18.72;92.52;101070.09;5080160;27;45550;-59
2021/09/27 06:41:07;;;;;;;;;8.75;8.00;;;;;18.73;92.89;101084.97;5095143;27;45294;-58
2021/09/27 06:43:32;;;;;;;;;12.25;12.25;;;;;18.74;92.40;101084.03;5079715;28;45224;-59
2021/09/27 06:45:58;;;;;;;;;10.00;8.75;;;;;18.80;92.40;101083.66;5078118;27;45188;-58
2021/09/27 06:48:24;;;;;;;;;9.50;9.50;;;;;18.82;92.21;101082.69;5079543;27;45413;-58
2021/09/27 06:50:51;;;;;;;;;10.00;9.00;;;;;18.81;92.09;101083.59;5079253;27;45240;-58
2021/09/27 06:53:16;;;;;;;;;9.00;9.00;;;;;18.82;92.18;101073.91;5078592;27;45406;-59
2021/09/27 06:55:43;;;;;;;;;11.00;8.50;;;;;18.84;91.80;101090.50;5078549;27;45420;-59
2021/09/27 06:58:08;;;;;;;;;10.00;9.75;;;;;18.79;91.91;101081.97;5079840;27;45300;-59
2021/09/27 07:00:34;;;;;;;;;11.00;8.75;;;;;18.77;92.57;101078.59;5079371;28;45256;-59
2021/09/27 07:03:00;;;;;;;;;9.25;7.00;;;;;18.78;92.35;101061.84;5079414;27;46134;-58
2021/09/27 07:05:25;;;;;;;;;7.50;7.50;;;;;18.79;91.95;101055.66;5077859;28;45676;-59
2021/09/27 07:07:51;;;;;;;;;10.75;7.00;;;;;18.77;92.67;101062.78;5079993;27;45323;-58
2021/09/27 07:10:21;;;;;;;;;10.25;10.25;;;;;18.75;92.83;101064.66;5079373;27;45445;-58
2021/09/27 07:12:46;;;;;;;;;11.75;9.00;;;;;18.74;93.08;101078.75;5079620;27;45278;-58
2021/09/27 07:15:13;;;;;;;;;11.75;10.75;;;;;18.74;92.83;101084.88;5079282;27;45291;-58
2021/09/27 07:17:38;;;;;;;;;10.75;9.75;;;;;18.76;93.37;101079.53;5070443;27;45341;-59
2021/09/27 07:20:11;;;;;;;;;14.50;11.75;;;;;18.81;93.11;101082.72;5076842;28;45268;-59
2021/09/27 07:22:36;;;;;;;;;10.00;9.00;;;;;18.83;93.46;101076.47;5077927;28;46033;-58
2021/09/27 07:25:02;;;;;;;;;9.75;8.50;;;;;18.82;93.07;101071.25;5082575;27;45487;-59
2021/09/27 07:27:28;;;;;;;;;9.25;8.00;;;;;18.73;92.62;101079.69;5082914;27;45332;-58
2021/09/27 07:29:53;;;;;;;;;11.00;9.00;;;;;18.70;92.99;101077.25;5082689;27;45325;-59
2021/09/27 07:32:19;;;;;;;;;6.75;6.75;;;;;18.67;93.14;101077.41;5082953;27;46307;-59
2021/09/27 07:34:44;;;;;;;;;11.50;9.50;;;;;18.63;93.43;101068.84;5082441;27;45333;-59
2021/09/27 07:37:09;;;;;;;;;7.50;7.25;;;;;18.68;94.03;101068.56;5082987;27;45361;-58
2021/09/27 07:39:35;;;;;;;;;9.00;8.25;;;;;18.69;94.13;101068.50;5082591;27;45513;-59
2021/09/27 07:42:00;;;;;;;;;14.00;6.75;;;;;18.69;94.47;101063.22;5082750;27;45361;-58
2021/09/27 07:44:26;;;;;;;;;11.00;9.00;;;;;18.71;94.57;101064.00;5081510;28;45294;-59
2021/09/27 07:46:51;;;;;;;;;8.50;8.50;;;;;18.70;94.05;101066.72;5082173;27;45233;-59
2021/09/27 07:49:17;;;;;;;;;14.00;9.00;;;;;18.71;94.00;101074.50;5082483;27;45237;-59
2021/09/27 07:51:43;;;;;;;;;10.75;8.50;;;;;18.72;93.73;101075.38;5082064;27;45986;-59
2021/09/27 07:54:09;;;;;;;;;9.75;9.00;;;;;18.70;94.07;101061.44;5080715;27;45250;-59
2021/09/27 07:56:35;;;;;;;;;13.00;11.00;;;;;18.68;94.52;101055.41;5082859;27;45235;-59
2021/09/27 07:59:01;;;;;;;;;9.50;9.25;;;;;18.68;94.30;101072.06;5082659;28;45239;-58
2021/09/27 08:01:27;;;;;;;;;9.75;9.25;;;;;18.71;94.76;101050.81;5082147;27;45530;-59
2021/09/27 08:03:52;;;;;;;;;11.00;9.50;;;;;18.70;94.50;101056.19;5081793;27;45618;-59
2021/09/27 08:06:17;;;;;;;;;9.75;9.50;;;;;18.74;94.59;101069.06;5082431;27;45418;-58
2021/09/27 08:08:43;;;;;;;;;9.75;9.75;;;;;18.76;94.48;101072.47;5080780;28;45466;-59
2021/09/27 08:11:09;;;;;;;;;10.00;10.00;;;;;18.79;94.51;101066.19;5082154;27;46208;-59
2021/09/27 08:13:34;;;;;;;;;10.00;7.50;;;;;18.81;94.45;101064.31;5081763;27;45443;-59
2021/09/27 08:16:00;;;;;;;;;10.00;9.00;;;;;18.84;94.39;101070.28;5082177;28;45329;-59
2021/09/27 08:18:26;;;;;;;;;14.25;11.75;;;;;18.87;94.19;101074.50;5065577;27;45299;-59
2021/09/27 08:20:51;;;;;;;;;23.75;18.25;;;;;18.90;93.83;101074.34;5071746;28;46221;-59
2021/09/27 08:23:17;;;;;;;;;14.00;12.75;;;;;18.93;93.66;101084.69;5081944;27;46578;-59
2021/09/27 08:25:43;;;;;;;;;13.25;12.00;;;;;18.98;94.15;101093.16;5082165;27;45434;-58
2021/09/27 08:28:12;;;;;;;;;7.25;7.25;;;;;19.01;93.54;101079.81;5081753;27;45236;-59
2021/09/27 08:30:50;;;;;;;;;17.00;14.00;;;;;19.05;93.98;101078.72;5081738;27;46141;-59
2021/09/27 08:33:18;;;;;;;;;10.75;10.50;;;;;19.09;93.85;101072.34;5081283;28;45422;-59
2021/09/27 08:35:44;;;;;;;;;12.25;11.25;;;;;19.16;93.66;101072.81;5080601;27;45258;-59
2021/09/27 08:38:10;;;;;;;;;10.25;9.50;;;;;19.15;93.06;101082.53;5081798;27;45586;-59
2021/09/27 08:40:47;;;;;;;;;9.25;9.00;;;;;19.09;93.01;101077.63;5081716;27;46642;-59
2021/09/27 08:43:29;;;;;;;;;8.50;8.50;;;;;19.09;93.16;101063.59;5081654;27;45638;-59
2021/09/27 08:45:59;;;;;;;;;11.75;10.25;;;;;19.13;93.47;101070.38;5080393;27;45287;-59
2021/09/27 08:48:36;;;;;;;;;9.50;8.00;;;;;19.21;93.16;101067.28;5081292;27;45597;-59
2021/09/27 08:51:03;;;;;;;;;9.25;9.25;;;;;19.23;93.21;101066.28;5080726;27;45411;-59
2021/09/27 08:53:34;;;;;;;;;10.00;8.75;;;;;19.24;92.95;101049.53;5081002;27;45310;-59
2021/09/27 08:56:18;;;;;;;;;8.50;8.50;;;;;19.22;92.52;101064.59;5080261;28;45310;-59
2021/09/27 08:58:52;;;;;;;;;11.00;6.50;;;;;19.19;92.69;101058.63;5081505;28;45361;-59
2021/09/27 09:01:40;;;;;;;;;10.25;10.25;;;;;19.18;92.62;101056.94;5081834;28;45415;-58
2021/09/27 09:04:20;;;;;;;;;10.25;10.25;;;;;19.22;93.30;101047.91;5081204;28;45344;-59
2021/09/27 09:06:51;;;;;;;;;15.50;13.25;;;;;19.29;93.02;101041.34;5081271;27;46640;-59
2021/09/27 09:09:22;;;;;;;;;20.75;17.50;;;;;19.33;92.12;101037.59;5081606;27;45328;-59
2021/09/27 09:11:54;;;;;;;;;11.00;10.25;;;;;19.35;92.69;101041.81;5081176;27;45580;-59
2021/09/27 09:14:43;;;;;;;;;14.25;11.00;;;;;19.42;92.26;101050.22;5081622;27;45422;-59
2021/09/27 09:17:28;;;;;;;;;16.00;11.25;;;;;19.45;92.39;101057.97;5063442;28;45511;-59
2021/09/27 09:19:54;;;;;;;;;16.00;11.50;;;;;19.47;91.79;101055.22;5073238;28;45559;-59
2021/09/27 09:22:37;;;;;;;;;10.50;10.25;;;;;19.43;91.19;101060.69;5071118;28;46091;-59
2021/09/27 09:25:10;;;;;;;;;12.50;10.75;;;;;19.40;91.66;101047.66;5079720;28;45366;-59
2021/09/27 09:27:36;;;;;;;;;11.75;9.50;;;;;19.40;91.27;101037.13;5068318;27;45300;-59
2021/09/27 09:30:05;;;;;;;;;14.75;11.75;;;;;19.44;91.62;101035.19;5081099;28;45325;-59
2021/09/27 09:32:33;;;;;;;;;10.25;9.25;;;;;19.49;91.83;101035.75;5080682;27;47204;-59
2021/09/27 09:35:16;;;;;;;;;5.00;3.75;;;;;19.57;91.36;101024.75;5081130;27;45505;-59
2021/09/27 09:37:52;;;;;;;;;11.00;11.00;;;;;19.64;91.58;101026.97;5080930;27;45306;-59
2021/09/27 09:40:25;;;;;;;;;12.25;9.25;;;;;19.77;90.64;101005.09;5081065;27;45188;-59
2021/09/27 09:43:08;;;;;;;;;10.00;8.75;;;;;19.92;90.52;101035.81;5080480;27;46300;-59
2021/09/27 09:45:38;;;;;;;;;10.25;8.50;;;;;20.11;90.27;101036.38;5079316;27;45280;-59
2021/09/27 09:48:12;;;;;;;;;10.25;10.00;;;;;20.28;89.36;101030.88;5067507;28;45288;-59
2021/09/27 09:50:38;;;;;;;;;8.00;7.25;;;;;20.32;87.61;101036.81;5079083;28;45445;-59
2021/09/27 09:53:16;;;;;;;;;11.00;7.25;;;;;20.27;87.24;101044.16;5080174;27;45202;-59
2021/09/27 09:55:53;;;;;;;;;10.00;8.00;;;;;20.23;87.73;101035.59;5080062;27;45330;-59
2021/09/27 09:58:28;;;;;;;;;7.00;7.00;;;;;20.27;87.54;101045.03;5080552;27;45478;-59
2021/09/27 10:00:58;;;;;;;;;10.75;8.75;;;;;20.32;87.94;101047.34;5080101;28;45270;-59
2021/09/27 10:03:31;;;;;;;;;9.00;8.75;;;;;20.36;87.52;101040.94;5079871;27;46898;-59
2021/09/27 10:06:04;;;;;;;;;9.00;9.00;;;;;20.39;87.09;101048.66;5079946;27;45268;-59
2021/09/27 10:08:29;;;;;;;;;9.00;7.00;;;;;20.47;86.90;101049.06;5080220;28;45254;-59
2021/09/27 10:11:08;;;;;;;;;6.00;6.00;;;;;20.48;86.50;101045.47;5080162;27;45318;-59
2021/09/27 10:13:33;;;;;;;;;6.50;6.50;;;;;20.45;85.65;101039.56;5075996;27;45302;-59
2021/09/27 10:16:01;;;;;;;;;9.00;8.00;;;;;20.39;85.58;101045.16;5069254;28;45757;-59
2021/09/27 10:18:37;;;;;;;;;6.00;6.00;;;;;20.32;85.25;101055.28;5064066;27;45271;-59
2021/09/27 10:21:24;;;;;;;;;7.75;6.25;;;;;20.28;84.75;101045.88;5071869;28;45391;-59
2021/09/27 10:23:54;;;;;;;;;8.00;7.25;;;;;20.17;85.49;101053.59;5068415;28;46279;-59
2021/09/27 10:26:32;;;;;;;;;5.25;5.25;;;;;20.04;85.33;101051.72;5079801;27;45293;-59
2021/09/27 10:29:08;;;;;;;;;7.00;6.25;;;;;19.84;86.66;101051.25;5080088;27;45427;-59
2021/09/27 10:31:37;;;;;;;;;8.25;7.25;;;;;19.74;87.53;101046.53;5079481;28;45311;-59
2021/09/27 10:34:10;;;;;;;;;5.00;5.00;;;;;19.66;88.36;101059.34;5079714;27;45529;-59
2021/09/27 10:36:44;;;;;;;;;7.25;5.50;;;;;19.64;89.36;101068.28;5079877;28;45772;-59
2021/09/27 10:39:14;;;;;;;;;5.75;5.75;;;;;19.57;89.67;101061.66;5079786;27;45350;-58
2021/09/27 10:41:54;;;;;;;;;8.75;7.50;;;;;19.43;90.35;101065.97;5079648;27;45596;-59
2021/09/27 10:44:26;;;;;;;;;7.75;6.00;;;;;19.37;91.28;101070.72;5077230;27;46289;-59
2021/09/27 10:47:02;;;;;;;;;6.50;5.75;;;;;19.35;91.03;101067.34;5079068;27;45246;-59
2021/09/27 10:49:36;;;;;;;;;7.00;7.00;;;;;19.39;91.32;101061.78;5079357;27;45355;-59
2021/09/27 10:52:24;;;;;;;;;8.50;8.00;;;;;19.41;91.96;101065.19;5078746;27;45239;-59
2021/09/27 10:55:13;;;;;;;;;7.00;5.75;;;;;19.45;91.71;101065.88;5071420;28;46994;-59
2021/09/27 10:57:56;;;;;;;;;4.50;4.50;;;;;19.43;91.94;101063.31;5078990;28;45401;-59
2021/09/27 11:00:37;;;;;;;;;7.50;7.50;;;;;19.41;92.62;101064.31;5079691;27;45470;-63
2021/09/27 11:03:33;;;;;;;;;5.00;5.00;;;;;19.39;92.67;101059.16;5079001;27;45618;-60
2021/09/27 11:06:51;;;;;;;;;6.25;6.25;;;;;19.40;92.55;101062.63;5067602;28;45293;-59
2021/09/27 11:09:25;;;;;;;;;10.75;9.00;;;;;19.39;93.91;101060.94;5075514;28;45580;-59
2021/09/27 11:12:01;;;;;;;;;9.50;6.75;;;;;19.45;93.48;101061.44;5065917;27;45329;-59
2021/09/27 11:14:37;;;;;;;;;8.00;8.00;;;;;19.56;93.38;101060.81;5079661;28;45459;-59
2021/09/27 11:17:05;;;;;;;;;12.00;8.25;;;;;19.62;93.56;101056.97;5074973;27;46225;-59
2021/09/27 11:19:34;;;;;;;;;8.25;8.00;;;;;19.60;93.84;101069.41;5072480;28;45168;-59
2021/09/27 11:22:15;;;;;;;;;9.50;6.75;;;;;19.39;95.63;101164.59;5079361;27;45606;-59
2021/09/27 11:24:44;;;;;;;;;3.00;1.50;;;;;18.43;100.00;101195.38;5079094;27;45165;-62
2021/09/27 11:27:26;;;;;;;;;2.25;2.00;;;;;17.52;100.00;101182.47;5079730;27;45541;-61
2021/09/27 11:29:55;;;;;;;;;0.75;0.75;;;;;16.80;80.98;101185.03;5073769;27;45559;-61
2021/09/27 11:32:26;;;;;;;;;1.00;1.00;;;;;16.43;65.37;101190.19;5070525;28;45315;-61
2021/09/27 11:35:00;;;;;;;;;1.75;1.75;;;;;16.21;31.97;101193.78;5079198;28;45239;-61
2021/09/27 11:37:56;;;;;;;;;1.50;1.50;;;;;16.07;0.00;101200.50;5079094;27;45497;-61
2021/09/27 11:40:21;;;;;;;;;3.00;3.00;;;;;15.96;0.00;101192.22;5079524;27;45200;-60
2021/09/27 11:42:53;;;;;;;;;4.00;2.00;;;;;15.89;0.00;101209.13;5078410;28;45562;-61
2021/09/27 11:45:24;;;;;;;;;4.00;1.25;;;;;15.84;0.00;101212.88;5070825;28;45537;-61
2021/09/27 11:48:11;;;;;;;;;5.50;2.00;;;;;15.73;0.00;101200.22;5077779;27;46828;-61
2021/09/27 11:50:50;;;;;;;;;6.25;4.50;;;;;15.73;0.00;101227.25;5078669;27;45418;-61
2021/09/27 11:53:35;;;;;;;;;9.00;4.00;;;;;15.84;38.31;101224.22;5078944;27;45156;-64
2021/09/27 11:56:10;;;;;;;;;3.00;2.00;;;;;15.91;64.40;101227.44;5077942;27;45668;-61
2021/09/27 11:59:03;;;;;;;;;5.00;5.00;;;;;15.98;77.00;101229.72;5079041;27;45452;-61